createdAt,value
2018-09-06T00:01:40.442Z,97905.69
2018-09-06T00:04:10.797Z,97900.26
2018-09-06T00:06:40.604Z,97903.80
2018-09-06T00:09:10.904Z,97905.03
2018-09-06T00:17:28.589Z,97904.95
2018-09-06T00:20:02.031Z,97901.05
2018-09-06T00:22:32.066Z,97906.33
2018-09-06T00:25:04.029Z,97902.27
2018-09-06T00:27:34.175Z,97901.38
2018-09-06T00:30:03.880Z,97899.33
2018-09-06T00:32:33.858Z,97897.80
2018-09-06T00:35:03.546Z,97901.42
2018-09-06T00:37:33.553Z,97896.44
2018-09-06T00:40:03.991Z,97892.63
2018-09-06T00:42:33.962Z,97898.41
2018-09-06T00:45:04.332Z,97893.61
2018-09-06T00:47:34.450Z,97895.77
2018-09-06T00:50:04.913Z,97893.12
2018-09-06T00:52:34.767Z,97893.12
2018-09-06T00:55:04.779Z,97898.05
2018-09-06T00:57:35.160Z,97898.19
2018-09-06T01:00:05.215Z,97894.50
2018-09-06T01:02:35.431Z,97892.55
2018-09-06T01:05:05.036Z,97891.38
2018-09-06T01:07:34.855Z,97894.55
2018-09-06T01:10:05.379Z,97891.28
2018-09-06T01:12:36.842Z,97891.28
2018-09-06T01:15:06.970Z,97887.48
2018-09-06T01:17:36.634Z,97881.84
2018-09-06T01:20:06.857Z,97882.80
2018-09-06T01:22:36.706Z,97882.41
2018-09-06T01:25:06.489Z,97879.41
2018-09-06T01:27:37.249Z,97882.53
2018-09-06T01:30:07.189Z,97871.59
2018-09-06T01:32:37.117Z,97874.98
2018-09-06T01:35:06.936Z,97869.80
2018-09-06T01:37:36.770Z,97872.98
2018-09-06T01:40:06.455Z,97872.39
2018-09-06T01:42:39.941Z,97867.20
2018-09-06T01:45:10.128Z,97864.56
2018-09-06T01:47:40.013Z,97867.20
2018-09-06T01:50:10.117Z,97865.41
2018-09-06T01:52:39.767Z,97862.08
2018-09-06T01:55:09.581Z,97859.80
2018-09-06T01:57:41.740Z,97852.70
2018-09-06T02:00:11.624Z,97854.05
2018-09-06T02:02:41.718Z,97853.93
2018-09-06T02:05:14.610Z,97850.87
2018-09-06T02:07:44.272Z,97851.83
2018-09-06T02:10:14.364Z,97840.75
2018-09-06T02:12:44.088Z,97853.89
2018-09-06T02:15:13.742Z,97850.24
2018-09-06T02:17:43.773Z,97847.97
2018-09-06T02:20:13.943Z,97849.14
2018-09-06T02:22:43.803Z,97839.59
2018-09-06T02:25:13.551Z,97843.48
2018-09-06T02:27:43.110Z,97841.80
2018-09-06T02:30:22.688Z,97837.06
2018-09-06T02:32:52.676Z,97834.36
2018-09-06T02:35:23.326Z,97837.59
2018-09-06T02:37:54.933Z,97835.43
2018-09-06T02:40:29.931Z,97834.88
2018-09-06T02:43:00.019Z,97829.08
2018-09-06T02:45:33.098Z,97825.12
2018-09-06T02:48:03.025Z,97820.71
2018-09-06T02:50:38.220Z,97820.38
2018-09-06T02:53:07.954Z,97817.64
2018-09-06T02:55:39.749Z,97816.33
2018-09-06T02:58:09.658Z,97811.42
2018-09-06T03:00:40.271Z,97818.12
2018-09-06T03:03:09.942Z,97816.20
2018-09-06T03:05:39.654Z,97822.27
2018-09-06T03:08:13.808Z,97817.74
2018-09-06T03:10:45.740Z,97821.33
2018-09-06T03:16:03.762Z,97810.95
2018-09-06T03:18:39.347Z,97815.90
2018-09-06T03:21:13.002Z,97817.02
2018-09-06T03:26:40.933Z,97817.55
2018-09-06T03:29:13.686Z,97809.91
2018-09-06T03:31:43.861Z,97811.22
2018-09-06T03:34:15.360Z,97813.12
2018-09-06T03:36:46.909Z,97808.33
2018-09-06T03:39:17.899Z,97808.16
2018-09-06T03:41:48.978Z,97803.94
2018-09-06T03:44:21.260Z,97804.90
2018-09-06T03:46:51.401Z,97804.63
2018-09-06T03:49:27.133Z,97797.09
2018-09-06T03:52:03.289Z,97800.41
2018-09-06T03:54:43.714Z,97796.82
2018-09-06T03:57:17.176Z,97794.19
2018-09-06T03:59:47.601Z,97790.13
2018-09-06T04:02:20.340Z,97794.09
2018-09-06T04:04:53.077Z,97792.08
2018-09-06T04:07:31.285Z,97791.06
2018-09-06T04:10:01.427Z,97795.98
2018-09-06T04:12:32.855Z,97792.65
2018-09-06T04:15:04.378Z,97790.97
2018-09-06T04:17:38.658Z,97795.66
2018-09-06T04:20:09.598Z,97792.44
2018-09-06T04:22:44.589Z,97792.61
2018-09-06T04:25:15.520Z,97789.97
2018-09-06T04:27:46.134Z,97793.49
2018-09-06T04:30:18.158Z,97789.54
2018-09-06T04:32:48.700Z,97792.53
2018-09-06T04:35:24.923Z,97787.16
2018-09-06T04:37:56.691Z,97783.43
2018-09-06T04:40:27.133Z,97787.06
2018-09-06T04:42:57.532Z,97781.27
2018-09-06T04:45:28.661Z,97778.47
2018-09-06T04:48:01.460Z,97782.56
2018-09-06T04:50:43.575Z,97786.62
2018-09-06T04:53:15.023Z,97780.27
2018-09-06T04:55:45.644Z,97782.05
2018-09-06T04:58:23.392Z,97784.09
2018-09-06T05:00:54.609Z,97778.78
2018-09-06T05:03:25.106Z,97780.43
2018-09-06T05:05:57.444Z,97782.80
2018-09-06T05:08:31.824Z,97778.05
2018-09-06T05:11:02.033Z,97784.34
2018-09-06T05:13:32.319Z,97782.91
2018-09-06T05:16:02.266Z,97781.80
2018-09-06T05:18:32.357Z,97776.69
2018-09-06T05:21:02.525Z,97785.27
2018-09-06T05:23:35.227Z,97776.95
2018-09-06T05:26:05.348Z,97771.77
2018-09-06T05:28:51.829Z,97775.08
2018-09-06T05:31:22.865Z,97780.02
2018-09-06T05:34:02.939Z,97784.97
2018-09-06T05:36:34.359Z,97780.50
2018-09-06T05:39:05.577Z,97782.03
2018-09-06T05:41:38.527Z,97786.55
2018-09-06T05:44:09.415Z,97785.02
2018-09-06T05:46:42.141Z,97791.29
2018-09-06T05:49:12.635Z,97788.86
2018-09-06T05:51:42.967Z,97787.47
2018-09-06T05:54:13.691Z,97794.16
2018-09-06T05:56:44.901Z,97788.60
2018-09-06T05:59:16.839Z,97785.88
2018-09-06T06:01:48.630Z,97778.05
2018-09-06T06:04:18.784Z,97780.05
2018-09-06T06:06:48.595Z,97778.58
2018-09-06T06:09:18.829Z,97779.42
2018-09-06T06:11:53.030Z,97775.45
2018-09-06T06:18:29.635Z,97771.70
2018-09-06T06:24:03.171Z,97778.60
2018-09-06T06:26:33.743Z,97776.01
2018-09-06T06:29:04.032Z,97775.09
2018-09-06T06:31:34.010Z,97774.97
2018-09-06T06:34:04.064Z,97781.69
2018-09-06T06:36:34.724Z,97777.44
2018-09-06T06:39:16.923Z,97781.23
2018-09-06T06:41:47.650Z,97773.61
2018-09-06T06:44:18.304Z,97776.75
2018-09-06T06:46:54.854Z,97773.51
2018-09-06T06:56:00.789Z,97780.93
2018-09-06T06:58:37.911Z,97781.97
2018-09-06T07:01:09.359Z,97787.91
2018-09-06T07:03:42.148Z,97785.92
2018-09-06T07:06:13.170Z,97790.86
2018-09-06T07:08:44.511Z,97785.43
2018-09-06T07:11:14.711Z,97785.17
2018-09-06T07:13:46.057Z,97782.06
2018-09-06T07:16:16.631Z,97779.23
2018-09-06T07:18:46.958Z,97784.44
2018-09-06T07:21:17.479Z,97792.69
2018-09-06T07:23:48.417Z,97794.57
2018-09-06T07:26:19.317Z,97787.45
2018-09-06T07:28:52.652Z,97788.13
2018-09-06T07:31:27.308Z,97790.00
2018-09-06T07:34:09.208Z,97793.50
2018-09-06T07:36:41.071Z,97791.48
2018-09-06T07:39:14.390Z,97783.80
2018-09-06T07:41:56.539Z,97791.23
2018-09-06T07:44:27.699Z,97795.75
2018-09-06T07:46:58.354Z,97795.05
2018-09-06T07:49:28.235Z,97799.13
2018-09-06T07:51:58.372Z,97801.86
2018-09-06T07:54:28.319Z,97792.76
2018-09-06T07:57:02.644Z,97807.16
2018-09-06T07:59:35.747Z,97801.80
2018-09-06T08:02:24.252Z,97808.86
2018-09-06T08:04:55.931Z,97805.67
2018-09-06T08:07:26.157Z,97807.81
2018-09-06T08:09:58.253Z,97807.80
2018-09-06T08:12:30.525Z,97810.30
2018-09-06T08:15:09.565Z,97801.55
2018-09-06T08:17:41.574Z,97803.83
2018-09-06T08:20:12.816Z,97799.22
2018-09-06T08:22:48.939Z,97795.64
2018-09-06T08:25:20.042Z,97791.88
2018-09-06T08:30:26.349Z,97788.82
2018-09-06T08:32:57.160Z,97787.70
2018-09-06T08:35:31.889Z,97791.97
2018-09-06T08:38:02.423Z,97792.70
2018-09-06T08:40:33.355Z,97794.75
2018-09-06T08:43:05.217Z,97797.98
2018-09-06T08:45:35.689Z,97794.98
2018-09-06T08:48:06.484Z,97795.00
2018-09-06T08:50:36.650Z,97790.98
2018-09-06T08:53:08.523Z,97796.59
2018-09-06T08:55:41.348Z,97799.34
2018-09-06T08:58:17.223Z,97794.21
2018-09-06T09:00:55.074Z,97796.48
2018-09-06T09:03:29.001Z,97796.83
2018-09-06T09:06:04.630Z,97790.86
2018-09-06T09:08:38.628Z,97791.64
2018-09-06T09:11:10.146Z,97787.80
2018-09-06T09:16:17.909Z,97784.53
2018-09-06T09:18:56.704Z,97780.49
2018-09-06T09:21:30.686Z,97778.53
2018-09-06T09:27:06.520Z,97767.86
2018-09-06T09:29:55.337Z,97767.67
2018-09-06T09:32:26.139Z,97759.97
2018-09-06T09:34:58.777Z,97768.07
2018-09-06T09:37:30.352Z,97764.91
2018-09-06T09:40:11.289Z,97763.52
2018-09-06T09:53:15.307Z,97741.96
2018-09-06T09:55:47.888Z,97736.93
2018-09-06T09:58:18.712Z,97741.33
2018-09-06T10:00:54.655Z,97737.28
2018-09-06T10:03:31.323Z,97727.84
2018-09-06T10:06:17.293Z,97726.42
2018-09-06T10:11:29.459Z,97721.20
2018-09-06T10:14:00.686Z,97720.66
2018-09-06T10:16:33.155Z,97714.02
2018-09-06T10:19:04.634Z,97714.50
2018-09-06T10:21:37.293Z,97699.30
2018-09-06T10:27:23.359Z,97693.91
2018-09-06T10:29:56.387Z,97692.27
2018-09-06T10:32:27.673Z,97689.70
2018-09-06T10:35:33.517Z,97680.95
2018-09-06T10:40:55.610Z,97673.33
2018-09-06T10:43:27.485Z,97669.23
2018-09-06T10:45:58.254Z,97673.20
2018-09-06T10:48:29.608Z,97660.17
2018-09-06T10:51:01.174Z,97659.55
2018-09-06T10:53:34.992Z,97658.67
2018-09-06T10:56:08.957Z,97658.42
2018-09-06T10:58:45.381Z,97671.98
2018-09-06T11:03:59.702Z,97696.63
2018-09-06T11:06:30.560Z,97698.22
2018-09-06T11:09:13.922Z,97704.75
2018-09-06T11:11:53.972Z,97709.27
2018-09-06T11:17:34.073Z,97703.55
2018-09-06T11:20:30.148Z,97711.47
2018-09-06T11:23:03.239Z,97698.55
2018-09-06T11:25:35.371Z,97687.97
2018-09-06T11:28:05.204Z,97697.47
2018-09-06T11:30:35.956Z,97694.22
2018-09-06T11:33:18.433Z,97712.73
2018-09-06T11:38:46.708Z,97713.96
2018-09-06T11:41:27.906Z,97704.51
2018-09-06T11:44:12.279Z,97698.27
2018-09-06T11:46:47.546Z,97678.24
2018-09-06T11:52:14.819Z,97683.80
2018-09-06T11:54:58.139Z,97685.99
2018-09-06T12:06:27.201Z,97671.39
2018-09-06T12:16:02.611Z,97668.46
2018-09-06T12:18:39.878Z,97673.23
2018-09-06T12:21:11.670Z,97677.26
2018-09-06T12:23:43.237Z,97673.45
2018-09-06T12:26:15.529Z,97666.23
2018-09-06T12:28:47.040Z,97669.36
2018-09-06T12:31:17.481Z,97660.02
2018-09-06T12:33:48.803Z,97652.59
2018-09-06T12:36:22.488Z,97645.86
2018-09-06T12:38:56.032Z,97640.34
2018-09-06T12:41:40.039Z,97638.72
2018-09-06T12:44:12.170Z,97640.02
2018-09-06T12:46:43.659Z,97637.10
2018-09-06T12:49:14.949Z,97634.28
2018-09-06T12:51:45.654Z,97636.30
2018-09-06T12:54:17.725Z,97634.22
2018-09-06T12:56:50.337Z,97629.03
2018-09-06T12:59:23.835Z,97624.95
2018-09-06T13:01:57.215Z,97626.00
2018-09-06T13:04:30.787Z,97612.23
2018-09-06T13:07:05.081Z,97605.72
2018-09-06T13:09:36.538Z,97599.78
2018-09-06T13:12:08.501Z,97597.91
2018-09-06T13:14:41.896Z,97597.94
2018-09-06T13:17:15.526Z,97595.39
2018-09-06T13:21:28.401Z,97597.02
2018-09-06T13:24:16.342Z,97597.84
2018-09-06T13:26:48.406Z,97606.03
2018-09-06T13:29:21.113Z,97603.27
2018-09-06T13:31:56.866Z,97599.11
2018-09-06T13:34:30.438Z,97595.45
2018-09-06T13:37:03.528Z,97590.38
2018-09-06T13:39:33.885Z,97591.55
2018-09-06T13:42:07.763Z,97591.00
2018-09-06T13:44:42.029Z,97587.71
2018-09-06T13:47:13.518Z,97598.50
2018-09-06T13:49:45.246Z,97588.95
2018-09-06T13:52:20.434Z,97592.44
2018-09-06T13:57:52.195Z,97587.11
2018-09-06T14:00:24.968Z,97589.34
2018-09-06T14:03:00.249Z,97584.97
2018-09-06T14:05:33.643Z,97589.98
2018-09-06T14:08:05.802Z,97576.84
2018-09-06T14:10:36.579Z,97575.21
2018-09-06T14:13:09.673Z,97576.28
2018-09-06T14:15:40.696Z,97570.08
2018-09-06T14:18:11.308Z,97561.37
2018-09-06T14:20:42.224Z,97550.02
2018-09-06T14:23:12.361Z,97546.81
2018-09-06T14:25:47.174Z,97534.37
2018-09-06T14:29:04.105Z,97530.34
2018-09-06T14:31:42.568Z,97524.17
2018-09-06T14:37:27.912Z,97519.02
2018-09-06T14:47:39.371Z,97515.25
2018-09-06T14:53:22.183Z,97536.77
2018-09-06T14:55:58.494Z,97533.77
2018-09-06T14:58:28.846Z,97529.48
2018-09-06T15:01:04.856Z,97525.76
2018-09-06T15:04:10.542Z,97528.23
2018-09-06T15:06:49.513Z,97535.59
2018-09-06T15:09:20.133Z,97541.22
2018-09-06T15:11:49.950Z,97542.66
2018-09-06T15:14:28.413Z,97547.70
2018-09-06T15:17:20.751Z,97543.73
2018-09-06T15:19:52.423Z,97538.99
2018-09-06T15:22:22.473Z,97547.52
2018-09-06T15:25:02.016Z,97542.77
2018-09-06T15:27:32.243Z,97553.18
2018-09-06T15:30:05.807Z,97549.58
2018-09-06T15:32:37.692Z,97543.42
2018-09-06T15:37:49.391Z,97553.33
2018-09-06T15:40:20.683Z,97563.78
2018-09-06T15:42:53.532Z,97567.73
2018-09-06T15:45:34.407Z,97581.62
2018-09-06T15:48:24.875Z,97593.02
2018-09-06T15:51:07.629Z,97593.56
2018-09-06T15:56:20.454Z,97590.25
2018-09-06T15:59:03.112Z,97586.03
2018-09-06T16:01:39.235Z,97581.93
2018-09-06T16:17:53.157Z,97606.06
2018-09-06T16:20:24.880Z,97599.40
2018-09-06T16:22:56.652Z,97590.42
2018-09-06T16:25:39.230Z,97580.95
2018-09-06T16:28:11.246Z,97580.77
2018-09-06T16:30:48.779Z,97580.77
2018-09-06T16:33:19.953Z,97575.41
2018-09-06T16:35:55.172Z,97570.05
2018-09-06T16:38:31.171Z,97567.52
2018-09-06T16:41:02.575Z,97562.53
2018-09-06T16:43:41.851Z,97565.61
2018-09-06T16:46:14.281Z,97554.20
2018-09-06T16:48:44.763Z,97543.95
2018-09-06T16:57:11.812Z,97574.06
2018-09-06T16:59:53.237Z,97587.27
2018-09-06T17:02:24.398Z,97585.66
2018-09-06T17:05:03.073Z,97583.50
2018-09-06T17:07:41.011Z,97587.65
2018-09-06T17:11:01.489Z,97591.00
2018-09-06T17:13:32.671Z,97600.87
2018-09-06T17:16:04.315Z,97605.23
2018-09-06T17:18:38.225Z,97607.39
2018-09-06T17:21:14.392Z,97606.91
2018-09-06T17:23:46.473Z,97610.39
2018-09-06T17:26:20.145Z,97619.64
2018-09-06T17:29:00.825Z,97621.28
2018-09-06T17:34:26.459Z,97632.75
2018-09-06T17:37:00.204Z,97640.88
2018-09-06T17:39:48.798Z,97638.58
2018-09-06T17:42:20.200Z,97638.34
2018-09-06T17:44:54.848Z,97639.86
2018-09-06T17:47:29.881Z,97636.67
2018-09-06T17:50:19.204Z,97640.92
2018-09-06T17:58:20.256Z,97648.02
2018-09-06T18:02:10.023Z,97642.73
2018-09-06T18:04:42.163Z,97649.41
2018-09-06T18:07:12.246Z,97647.59
2018-09-06T18:09:43.539Z,97641.48
2018-09-06T18:12:27.664Z,97644.12
2018-09-06T18:14:58.695Z,97648.02
2018-09-06T18:17:31.600Z,97653.66
2018-09-06T18:20:04.263Z,97656.65
2018-09-06T18:22:36.827Z,97658.27
2018-09-06T18:25:17.949Z,97652.05
2018-09-06T18:27:57.626Z,97658.00
2018-09-06T18:30:37.336Z,97663.58
2018-09-06T18:33:08.714Z,97667.55
2018-09-06T18:35:41.165Z,97661.64
2018-09-06T18:38:15.171Z,97668.67
2018-09-06T18:40:45.662Z,97666.38
2018-09-06T18:43:19.679Z,97670.67
2018-09-06T18:45:57.443Z,97672.44
2018-09-06T18:48:29.955Z,97675.18
2018-09-06T18:51:07.747Z,97678.95
2018-09-06T18:53:39.263Z,97683.46
2018-09-06T18:56:17.476Z,97689.45
2018-09-06T18:58:51.153Z,97685.91
2018-09-06T19:01:22.929Z,97689.71
2018-09-06T19:03:54.776Z,97688.75
2018-09-06T19:06:26.433Z,97696.67
2018-09-06T19:11:45.915Z,97701.96
2018-09-06T19:14:44.543Z,97718.53
2018-09-06T19:20:18.913Z,97725.36
2018-09-06T19:25:50.462Z,97725.27
2018-09-06T19:31:26.163Z,97724.98
2018-09-06T19:33:58.299Z,97730.66
2018-09-06T19:36:29.267Z,97732.81
2018-09-06T19:39:01.328Z,97737.66
2018-09-06T19:41:32.449Z,97728.69
2018-09-06T19:44:08.445Z,97729.72
2018-09-06T19:49:41.294Z,97723.20
2018-09-06T19:52:12.008Z,97724.69
2018-09-06T19:54:41.969Z,97721.21
2018-09-06T19:57:16.509Z,97719.89
2018-09-06T19:59:50.731Z,97714.98
2018-09-06T20:02:23.405Z,97712.34
2018-09-06T20:04:54.248Z,97719.24
2018-09-06T20:07:27.766Z,97725.47
2018-09-06T20:10:02.832Z,97721.80
2018-09-06T20:12:34.075Z,97716.15
2018-09-06T20:15:04.905Z,97716.31
2018-09-06T20:17:35.381Z,97724.59
2018-09-06T20:20:09.102Z,97728.88
2018-09-06T20:22:41.080Z,97727.72
2018-09-06T20:25:12.304Z,97722.44
2018-09-06T20:27:42.374Z,97730.69
2018-09-06T20:30:14.459Z,97722.14
2018-09-06T20:32:45.313Z,97723.27
2018-09-06T20:35:18.447Z,97718.47
2018-09-06T20:37:49.700Z,97722.92
2018-09-06T20:40:23.277Z,97719.83
2018-09-06T20:42:53.506Z,97726.30
2018-09-06T20:45:43.764Z,97727.14
2018-09-06T20:48:14.923Z,97720.34
2018-09-06T20:50:45.762Z,97715.37
2018-09-06T20:56:10.319Z,97715.86
2018-09-06T20:58:46.187Z,97719.34
2018-09-06T21:01:22.612Z,97717.89
2018-09-06T21:03:59.404Z,97723.79
2018-09-06T21:06:29.937Z,97721.50
2018-09-06T21:09:01.256Z,97724.30
2018-09-06T21:11:33.359Z,97716.15
2018-09-06T21:14:07.327Z,97720.56
2018-09-06T21:16:39.232Z,97719.44
2018-09-06T21:27:25.239Z,97721.05
2018-09-06T21:30:07.151Z,97713.24
2018-09-06T21:32:40.367Z,97706.08
2018-09-06T21:35:39.449Z,97709.53
2018-09-06T21:38:16.133Z,97707.63
2018-09-06T21:41:00.464Z,97696.67
2018-09-06T21:53:38.839Z,97705.92
2018-09-06T21:56:10.107Z,97710.38
2018-09-06T21:58:40.032Z,97707.95
2018-09-06T22:01:10.307Z,97706.89
2018-09-06T22:03:46.379Z,97704.05
2018-09-06T22:06:16.422Z,97708.38
2018-09-06T22:08:48.805Z,97704.77
2018-09-06T22:11:19.708Z,97705.47
2018-09-06T22:13:49.757Z,97707.53
2018-09-06T22:16:21.366Z,97711.94
2018-09-06T22:18:53.335Z,97716.52
2018-09-06T22:21:25.272Z,97721.31
2018-09-06T22:23:55.252Z,97724.16
2018-09-06T22:26:25.417Z,97722.99
2018-09-06T22:28:56.786Z,97729.59
2018-09-06T22:31:27.283Z,97725.06
2018-09-06T22:33:58.049Z,97731.31
2018-09-06T22:36:27.971Z,97724.52
2018-09-06T22:38:57.798Z,97725.06
2018-09-06T22:41:31.684Z,97722.83
2018-09-06T22:44:01.594Z,97721.95
2018-09-06T22:46:31.412Z,97724.99
2018-09-06T22:49:07.376Z,97730.92
2018-09-06T22:51:37.461Z,97725.63
2018-09-06T22:54:09.071Z,97730.63
2018-09-06T22:56:39.063Z,97722.80
2018-09-06T22:59:09.796Z,97720.08
2018-09-06T23:01:39.759Z,97722.17
2018-09-06T23:04:09.751Z,97727.13
2018-09-06T23:06:39.646Z,97722.33
2018-09-06T23:09:10.110Z,97722.81
2018-09-06T23:11:40.076Z,97720.30
2018-09-06T23:14:09.975Z,97715.53
2018-09-06T23:16:40.186Z,97716.14
2018-09-06T23:19:10.007Z,97708.50
2018-09-06T23:21:39.928Z,97714.58
2018-09-06T23:24:09.792Z,97715.34
2018-09-06T23:26:39.735Z,97717.58
2018-09-06T23:29:09.618Z,97718.67
2018-09-06T23:31:52.131Z,97722.11
2018-09-06T23:34:22.042Z,97723.47
2018-09-06T23:36:52.443Z,97731.19
2018-09-06T23:39:22.330Z,97731.12
2018-09-06T23:41:52.436Z,97730.99
2018-09-06T23:44:23.110Z,97733.91
2018-09-06T23:46:54.045Z,97728.35
2018-09-06T23:49:23.930Z,97735.03
2018-09-06T23:51:53.907Z,97729.80
2018-09-06T23:54:24.123Z,97735.43
2018-09-06T23:56:59.543Z,97735.55
2018-09-06T23:59:29.484Z,97735.19
